createdAt,value
2019-05-17T00:01:57.531Z,20.17
2019-05-17T00:04:27.202Z,20.73
2019-05-17T00:06:57.563Z,22.33
2019-05-17T00:09:28.003Z,25.07
2019-05-17T00:11:58.361Z,21.90
2019-05-17T00:14:28.788Z,23.43
2019-05-17T00:16:59.202Z,23.63
2019-05-17T00:19:29.910Z,25.43
2019-05-17T00:22:00.376Z,26.90
2019-05-17T00:24:30.925Z,25.07
2019-05-17T00:27:01.488Z,24.90
2019-05-17T00:29:31.900Z,25.97
2019-05-17T00:32:02.289Z,32.27
2019-05-17T00:34:32.761Z,29.10
2019-05-17T00:37:03.313Z,30.13
2019-05-17T00:39:36.507Z,28.27
2019-05-17T00:42:07.019Z,26.77
2019-05-17T00:44:37.797Z,26.27
2019-05-17T00:47:08.587Z,28.83
2019-05-17T00:49:38.954Z,28.40
2019-05-17T00:52:10.180Z,27.93
2019-05-17T00:54:40.627Z,29.13
2019-05-17T00:57:11.036Z,27.23
2019-05-17T00:59:41.453Z,30.33
2019-05-17T01:02:11.856Z,24.23
2019-05-17T01:04:42.281Z,25.17
2019-05-17T01:07:12.943Z,27.17
2019-05-17T01:09:43.320Z,25.70
2019-05-17T01:12:16.312Z,27.17
2019-05-17T01:14:46.616Z,23.50
2019-05-17T01:17:17.473Z,24.47
2019-05-17T01:19:47.845Z,25.50
2019-05-17T01:22:18.217Z,24.63
2019-05-17T01:24:48.656Z,24.03
2019-05-17T01:27:19.077Z,21.60
2019-05-17T01:29:49.883Z,21.47
2019-05-17T01:32:20.252Z,21.03
2019-05-17T01:34:50.623Z,23.87
2019-05-17T01:37:21.083Z,24.13
2019-05-17T01:39:51.463Z,25.90
2019-05-17T01:42:21.841Z,23.37
2019-05-17T01:44:52.211Z,25.63
2019-05-17T01:47:22.634Z,21.03
2019-05-17T01:49:53.328Z,22.37
2019-05-17T01:52:23.673Z,26.10
2019-05-17T01:54:54.095Z,30.93
2019-05-17T01:57:24.461Z,30.63
2019-05-17T01:59:57.020Z,31.87
2019-05-17T02:02:32.085Z,49.07
2019-05-17T02:05:02.511Z,57.30
2019-05-17T02:07:33.043Z,50.90
2019-05-17T02:10:07.416Z,45.23
2019-05-17T02:12:37.443Z,51.73
2019-05-17T02:15:10.189Z,53.00
2019-05-17T02:17:40.595Z,38.10
2019-05-17T02:20:11.541Z,40.63
2019-05-17T02:22:41.946Z,42.50
2019-05-17T02:25:13.149Z,39.00
2019-05-17T02:27:44.716Z,36.07
2019-05-17T02:30:16.432Z,36.67
2019-05-17T02:32:47.835Z,37.07
2019-05-17T02:35:18.552Z,33.93
2019-05-17T02:37:49.015Z,33.07
2019-05-17T02:40:22.689Z,34.47
2019-05-17T02:42:53.530Z,35.27
2019-05-17T02:45:24.118Z,36.27
2019-05-17T02:47:54.561Z,36.27
2019-05-17T02:50:24.952Z,35.60
2019-05-17T02:52:55.376Z,38.57
2019-05-17T02:55:25.911Z,35.33
2019-05-17T02:57:56.449Z,35.17
2019-05-17T03:00:26.775Z,33.40
2019-05-17T03:02:57.089Z,34.30
2019-05-17T03:05:27.519Z,34.20
2019-05-17T03:07:57.944Z,35.13
2019-05-17T03:10:29.036Z,38.13
2019-05-17T03:12:59.642Z,34.63
2019-05-17T03:15:32.435Z,34.90
2019-05-17T03:18:03.761Z,34.23
2019-05-17T03:20:34.608Z,35.97
2019-05-17T03:23:05.238Z,32.70
2019-05-17T03:25:36.700Z,32.23
2019-05-17T03:28:07.089Z,38.63
2019-05-17T03:30:46.020Z,33.00
2019-05-17T03:33:16.170Z,29.83
2019-05-17T03:35:46.155Z,26.03
2019-05-17T03:38:16.789Z,27.67
2019-05-17T03:41:07.266Z,31.90
2019-05-17T03:43:22.408Z,34.00
2019-05-17T03:45:53.418Z,33.53
2019-05-17T03:48:23.240Z,26.27
2019-05-17T03:50:53.614Z,27.50
2019-05-17T03:53:24.171Z,24.30
2019-05-17T03:55:55.490Z,25.00
2019-05-17T03:58:26.092Z,21.17
2019-05-17T04:00:56.536Z,22.07
2019-05-17T04:03:30.961Z,23.03
2019-05-17T04:05:59.021Z,24.80
2019-05-17T04:08:29.439Z,22.10
2019-05-17T04:11:17.635Z,20.67
2019-05-17T04:13:33.724Z,21.23
2019-05-17T04:16:09.004Z,23.27
2019-05-17T04:18:36.540Z,22.58
2019-05-17T04:21:06.941Z,21.23
2019-05-17T04:23:37.318Z,22.00
2019-05-17T04:26:07.801Z,22.23
2019-05-17T04:28:38.250Z,21.40
2019-05-17T04:31:08.739Z,21.65
2019-05-17T04:33:39.192Z,22.35
2019-05-17T04:36:12.892Z,23.50
2019-05-17T04:38:43.551Z,22.02
2019-05-17T04:41:14.383Z,21.55
2019-05-17T04:43:45.812Z,21.82
2019-05-17T04:46:16.250Z,21.37
2019-05-17T04:48:46.664Z,20.92
2019-05-17T04:51:17.330Z,20.50
2019-05-17T04:53:47.734Z,23.42
2019-05-17T04:56:18.224Z,19.10
2019-05-17T04:58:50.319Z,21.40
2019-05-17T05:01:23.542Z,20.90
2019-05-17T05:03:53.319Z,21.70
2019-05-17T05:06:23.895Z,21.52
2019-05-17T05:08:55.569Z,21.07
2019-05-17T05:11:25.942Z,20.72
2019-05-17T05:13:56.381Z,24.50
2019-05-17T05:16:27.141Z,23.02
2019-05-17T05:18:57.601Z,22.22
2019-05-17T05:21:28.585Z,22.58
2019-05-17T05:23:59.391Z,20.60
2019-05-17T05:26:31.739Z,22.40
2019-05-17T05:29:02.448Z,21.10
2019-05-17T05:31:33.501Z,21.57
2019-05-17T05:34:04.488Z,21.07
2019-05-17T05:36:34.977Z,18.70
2019-05-17T05:39:07.167Z,18.77
2019-05-17T05:41:37.811Z,18.70
2019-05-17T05:44:08.199Z,18.67
2019-05-17T05:46:38.570Z,17.02
2019-05-17T05:49:08.957Z,16.45
2019-05-17T05:51:39.501Z,16.37
2019-05-17T05:54:12.118Z,15.55
2019-05-17T05:56:42.377Z,19.35
2019-05-17T05:59:13.202Z,18.17
2019-05-17T06:01:43.889Z,18.62
2019-05-17T06:04:14.283Z,19.42
2019-05-17T06:06:45.123Z,21.05
2019-05-17T06:09:17.269Z,21.17
2019-05-17T06:11:47.719Z,22.42
2019-05-17T06:14:18.171Z,23.83
2019-05-17T06:16:48.715Z,22.62
2019-05-17T06:19:19.232Z,21.90
2019-05-17T06:21:51.853Z,23.62
2019-05-17T06:24:22.527Z,23.18
2019-05-17T06:26:53.184Z,26.85
2019-05-17T06:29:23.718Z,20.48
2019-05-17T06:31:54.124Z,20.77
2019-05-17T06:34:25.578Z,23.95
2019-05-17T06:36:56.379Z,23.12
2019-05-17T06:39:26.791Z,27.35
2019-05-17T06:41:57.202Z,25.48
2019-05-17T06:44:27.626Z,23.40
2019-05-17T06:46:58.085Z,26.05
2019-05-17T06:49:28.461Z,24.32
2019-05-17T06:51:58.959Z,23.87
2019-05-17T06:54:29.353Z,24.92
2019-05-17T06:57:03.351Z,28.95
2019-05-17T06:59:33.220Z,29.25
2019-05-17T07:02:03.662Z,28.23
2019-05-17T07:04:34.214Z,28.77
2019-05-17T07:07:21.993Z,31.55
2019-05-17T07:09:52.404Z,37.58
2019-05-17T07:12:22.757Z,31.75
2019-05-17T07:14:53.347Z,41.75
2019-05-17T07:17:24.413Z,32.03
2019-05-17T07:19:54.838Z,31.42
2019-05-17T07:22:25.297Z,31.05
2019-05-17T07:24:55.757Z,33.35
2019-05-17T07:27:37.965Z,27.93
2019-05-17T07:29:59.257Z,26.48
2019-05-17T07:32:30.051Z,28.85
2019-05-17T07:35:00.413Z,25.60
2019-05-17T07:37:30.920Z,24.85
2019-05-17T07:40:05.043Z,24.55
2019-05-17T07:42:34.461Z,26.25
2019-05-17T07:45:05.705Z,25.70
2019-05-17T07:47:36.171Z,25.12
2019-05-17T07:50:11.219Z,25.40
2019-05-17T07:52:42.414Z,36.13
2019-05-17T07:55:12.921Z,27.07
2019-05-17T07:57:43.564Z,27.10
2019-05-17T08:00:15.048Z,25.15
2019-05-17T08:02:46.610Z,26.65
2019-05-17T08:05:16.991Z,24.27
2019-05-17T08:07:49.860Z,20.43
2019-05-17T08:10:20.526Z,18.67
2019-05-17T08:12:51.018Z,15.32
2019-05-17T08:15:21.389Z,17.45
2019-05-17T08:17:52.068Z,16.10
2019-05-17T08:20:22.707Z,15.23
2019-05-17T08:22:53.877Z,15.45
2019-05-17T08:25:24.444Z,17.85
2019-05-17T08:27:54.879Z,18.30
2019-05-17T08:30:26.218Z,13.72
2019-05-17T08:32:56.590Z,11.33
2019-05-17T08:35:27.082Z,13.58
2019-05-17T08:38:00.350Z,13.53
2019-05-17T08:40:30.592Z,10.82
2019-05-17T08:43:01.111Z,11.60
2019-05-17T08:45:31.597Z,11.83
2019-05-17T08:48:02.321Z,10.23
2019-05-17T08:50:32.718Z,11.70
2019-05-17T08:53:03.060Z,11.03
2019-05-17T08:55:33.357Z,11.12
2019-05-17T08:58:03.895Z,9.88
2019-05-17T09:00:34.277Z,12.10
2019-05-17T09:03:04.811Z,10.93
2019-05-17T09:05:35.293Z,9.80
2019-05-17T09:08:05.955Z,9.38
2019-05-17T09:10:36.287Z,11.97
2019-05-17T09:13:06.715Z,11.95
2019-05-17T09:15:37.072Z,11.40
2019-05-17T09:18:09.630Z,13.72
2019-05-17T09:20:40.870Z,12.15
2019-05-17T09:23:11.465Z,11.60
2019-05-17T09:25:41.868Z,12.07
2019-05-17T09:28:12.981Z,15.18
2019-05-17T09:30:43.444Z,13.60
2019-05-17T09:33:13.807Z,18.52
2019-05-17T09:35:44.652Z,15.13
2019-05-17T09:38:15.829Z,13.85
2019-05-17T09:40:46.269Z,13.95
2019-05-17T09:43:20.790Z,12.35
2019-05-17T09:45:51.482Z,14.53
2019-05-17T09:48:22.953Z,11.40
2019-05-17T09:50:53.766Z,16.80
2019-05-17T09:53:24.120Z,12.80
2019-05-17T09:55:55.779Z,18.45
2019-05-17T09:58:26.206Z,19.30
2019-05-17T10:00:56.826Z,14.23
2019-05-17T10:03:30.550Z,15.23
2019-05-17T10:06:01.005Z,20.65
2019-05-17T10:08:31.424Z,14.43
2019-05-17T10:11:08.516Z,17.05
2019-05-17T10:13:33.805Z,10.25
2019-05-17T10:16:04.331Z,14.43
2019-05-17T10:18:34.793Z,15.32
2019-05-17T10:21:05.283Z,14.75
2019-05-17T10:23:37.134Z,15.75
2019-05-17T10:26:07.631Z,17.10
2019-05-17T10:28:40.007Z,13.98
2019-05-17T10:31:11.310Z,13.25
2019-05-17T10:33:42.138Z,16.07
2019-05-17T10:36:12.654Z,14.05
2019-05-17T10:38:43.061Z,12.18
2019-05-17T10:41:13.505Z,13.28
2019-05-17T10:43:43.924Z,13.43
2019-05-17T10:46:14.330Z,13.98
2019-05-17T10:48:45.013Z,17.73
2019-05-17T10:51:15.534Z,12.33
2019-05-17T10:53:45.946Z,14.58
2019-05-17T10:56:16.303Z,17.15
2019-05-17T10:58:49.227Z,13.80
2019-05-17T11:01:20.047Z,14.85
2019-05-17T11:03:50.770Z,11.05
2019-05-17T11:06:21.267Z,9.83
2019-05-17T11:08:51.680Z,12.43
2019-05-17T11:11:22.066Z,14.05
2019-05-17T11:13:53.133Z,12.63
2019-05-17T11:16:23.877Z,11.75
2019-05-17T11:18:54.280Z,11.33
2019-05-17T11:21:24.704Z,11.20
2019-05-17T11:23:55.113Z,9.78
2019-05-17T11:26:26.646Z,11.97
2019-05-17T11:28:57.021Z,11.68
2019-05-17T11:31:27.415Z,11.38
2019-05-17T11:33:57.821Z,11.65
2019-05-17T11:36:28.228Z,10.95
2019-05-17T11:38:58.577Z,10.68
2019-05-17T11:41:29.290Z,7.20
2019-05-17T11:43:59.694Z,13.48
2019-05-17T11:46:36.255Z,10.63
2019-05-17T11:49:04.738Z,7.87
2019-05-17T11:51:35.178Z,8.50
2019-05-17T11:54:05.943Z,6.10
2019-05-17T11:56:36.354Z,8.78
2019-05-17T11:59:08.043Z,7.53
2019-05-17T12:01:38.466Z,7.35
2019-05-17T12:04:08.861Z,6.67
2019-05-17T12:06:39.298Z,8.58
2019-05-17T12:09:10.810Z,7.62
2019-05-17T12:11:41.216Z,7.45
2019-05-17T12:14:11.668Z,7.45
2019-05-17T12:16:42.218Z,9.25
2019-05-17T12:19:13.712Z,9.83
2019-05-17T12:21:44.069Z,8.10
2019-05-17T12:24:14.523Z,10.48
2019-05-17T12:26:47.441Z,10.70
2019-05-17T12:29:17.578Z,9.05
2019-05-17T12:31:48.060Z,8.28
2019-05-17T12:34:18.466Z,8.23
2019-05-17T12:36:49.114Z,15.00
2019-05-17T12:39:19.600Z,12.37
2019-05-17T12:41:50.232Z,13.62
2019-05-17T12:44:21.010Z,14.30
2019-05-17T12:46:52.408Z,13.13
2019-05-17T12:49:22.862Z,16.52
2019-05-17T12:51:53.789Z,16.67
2019-05-17T12:54:24.393Z,14.78
2019-05-17T12:56:55.046Z,17.35
2019-05-17T12:59:25.535Z,19.20
2019-05-17T13:01:56.060Z,19.07
2019-05-17T13:04:26.415Z,18.60
2019-05-17T13:06:56.875Z,19.62
2019-05-17T13:09:27.282Z,19.17
2019-05-17T13:11:57.763Z,22.55
2019-05-17T13:14:28.254Z,19.85
2019-05-17T13:16:59.157Z,20.97
2019-05-17T13:19:29.641Z,28.42
2019-05-17T13:22:00.138Z,17.52
2019-05-17T13:24:32.568Z,19.52
2019-05-17T13:27:02.999Z,13.30
2019-05-17T13:29:33.407Z,17.42
2019-05-17T13:32:03.994Z,16.27
2019-05-17T13:34:36.634Z,12.98
2019-05-17T13:37:07.059Z,13.47
2019-05-17T13:39:39.008Z,15.38
2019-05-17T13:42:09.751Z,13.20
2019-05-17T13:44:41.214Z,13.48
2019-05-17T13:47:11.946Z,11.83
2019-05-17T13:49:42.391Z,14.40
2019-05-17T13:52:12.838Z,9.95
2019-05-17T13:54:43.280Z,10.55
2019-05-17T13:57:13.984Z,7.95
2019-05-17T13:59:46.710Z,10.68
2019-05-17T14:02:17.061Z,8.83
2019-05-17T14:04:47.544Z,10.10
2019-05-17T14:07:17.983Z,10.10
2019-05-17T14:09:49.617Z,7.50
2019-05-17T14:12:20.035Z,6.10
2019-05-17T14:14:50.401Z,8.70
2019-05-17T14:17:21.110Z,8.30
2019-05-17T14:19:51.909Z,8.00
2019-05-17T14:22:22.341Z,7.00
2019-05-17T14:24:52.789Z,7.78
2019-05-17T14:27:23.354Z,7.67
2019-05-17T14:29:54.218Z,6.92
2019-05-17T14:32:24.692Z,6.70
2019-05-17T14:34:57.337Z,7.22
2019-05-17T14:37:29.919Z,7.62
2019-05-17T14:40:01.734Z,8.40
2019-05-17T14:42:32.307Z,11.53
2019-05-17T14:45:02.867Z,6.15
2019-05-17T14:47:33.409Z,5.40
2019-05-17T14:50:03.846Z,5.15
2019-05-17T14:52:35.425Z,5.95
2019-05-17T14:55:06.605Z,3.95
2019-05-17T14:57:36.971Z,4.15
2019-05-17T15:00:08.344Z,4.40
2019-05-17T15:02:38.735Z,3.55
2019-05-17T15:05:09.950Z,4.60
2019-05-17T15:07:40.354Z,3.67
2019-05-17T15:10:12.288Z,3.10
2019-05-17T15:12:43.370Z,3.22
2019-05-17T15:15:14.126Z,3.00
2019-05-17T15:17:44.495Z,3.47
2019-05-17T15:20:15.200Z,2.85
2019-05-17T15:22:45.609Z,3.95
2019-05-17T15:25:16.356Z,2.70
2019-05-17T15:27:46.734Z,2.85
2019-05-17T15:30:17.574Z,3.52
2019-05-17T15:32:48.055Z,3.65
2019-05-17T15:35:18.523Z,3.47
2019-05-17T15:37:49.042Z,3.25
2019-05-17T15:40:19.521Z,3.85
2019-05-17T15:42:49.971Z,3.83
2019-05-17T15:45:20.438Z,3.80
2019-05-17T15:47:51.136Z,3.62
2019-05-17T15:50:21.535Z,4.37
2019-05-17T15:52:52.374Z,3.70
2019-05-17T15:55:22.798Z,3.95
2019-05-17T15:57:53.168Z,3.70
2019-05-17T16:00:24.074Z,4.00
2019-05-17T16:02:55.535Z,5.25
2019-05-17T16:05:27.054Z,3.80
2019-05-17T16:07:57.860Z,4.20
2019-05-17T16:10:28.412Z,5.28
2019-05-17T16:13:02.783Z,4.87
2019-05-17T16:15:31.211Z,4.42
2019-05-17T16:18:01.683Z,3.60
2019-05-17T16:20:32.235Z,5.10
2019-05-17T16:23:02.758Z,5.15
2019-05-17T16:25:34.064Z,4.72
2019-05-17T16:28:04.614Z,4.40
2019-05-17T16:30:34.992Z,5.78
2019-05-17T16:33:05.682Z,5.10
2019-05-17T16:35:36.425Z,5.05
2019-05-17T16:38:07.071Z,4.50
2019-05-17T16:40:37.813Z,4.55
2019-05-17T16:43:17.814Z,4.65
2019-05-17T16:45:40.272Z,5.53
2019-05-17T16:48:12.184Z,5.37
2019-05-17T16:50:42.719Z,4.20
2019-05-17T16:53:13.235Z,4.92
2019-05-17T16:55:44.237Z,5.00
2019-05-17T16:58:15.137Z,4.10
2019-05-17T17:00:46.246Z,5.22
2019-05-17T17:03:16.655Z,5.15
2019-05-17T17:05:48.242Z,5.03
2019-05-17T17:08:18.643Z,4.50
2019-05-17T17:10:48.980Z,5.28
2019-05-17T17:13:32.390Z,6.92
2019-05-17T17:15:52.757Z,6.97
2019-05-17T17:18:23.180Z,7.25
2019-05-17T17:20:53.570Z,7.05
2019-05-17T17:23:23.983Z,6.03
2019-05-17T17:25:54.439Z,5.30
2019-05-17T17:28:25.581Z,5.83
2019-05-17T17:30:56.220Z,5.75
2019-05-17T17:33:26.963Z,6.05
2019-05-17T17:35:58.850Z,6.12
2019-05-17T17:38:29.552Z,6.58
2019-05-17T17:41:01.849Z,5.78
2019-05-17T17:43:32.480Z,5.83
2019-05-17T17:46:02.861Z,5.60
2019-05-17T17:48:33.459Z,6.45
2019-05-17T17:51:03.864Z,5.92
2019-05-17T17:53:34.279Z,5.85
2019-05-17T17:56:04.697Z,5.65
2019-05-17T17:58:36.588Z,5.95
2019-05-17T18:01:07.202Z,6.90
2019-05-17T18:03:37.797Z,7.30
2019-05-17T18:06:08.276Z,6.28
2019-05-17T18:08:38.735Z,5.80
2019-05-17T18:11:10.284Z,6.28
2019-05-17T18:13:40.872Z,6.47
2019-05-17T18:16:11.418Z,6.83
2019-05-17T18:18:41.816Z,6.95
2019-05-17T18:21:12.627Z,6.12
2019-05-17T18:23:43.092Z,6.00
2019-05-17T18:26:13.785Z,5.80
2019-05-17T18:28:44.229Z,6.10
2019-05-17T18:31:14.863Z,6.67
2019-05-17T18:33:45.242Z,5.97
2019-05-17T18:36:15.906Z,5.40
2019-05-17T18:38:49.778Z,6.15
2019-05-17T18:41:21.377Z,6.53
2019-05-17T18:43:51.738Z,7.00
2019-05-17T18:46:22.619Z,7.65
2019-05-17T18:48:53.064Z,9.00
2019-05-17T18:51:23.637Z,7.97
2019-05-17T18:53:54.995Z,6.62
2019-05-17T18:56:25.419Z,7.33
2019-05-17T18:58:56.144Z,8.28
2019-05-17T19:01:26.524Z,8.15
2019-05-17T19:03:56.918Z,8.58
2019-05-17T19:06:27.302Z,9.45
2019-05-17T19:08:57.665Z,8.23
2019-05-17T19:11:29.843Z,8.40
2019-05-17T19:14:00.278Z,7.95
2019-05-17T19:16:30.757Z,7.00
2019-05-17T19:19:01.009Z,8.63
2019-05-17T19:21:31.440Z,8.25
2019-05-17T19:24:01.845Z,7.75
2019-05-17T19:26:32.262Z,8.90
2019-05-17T19:29:02.935Z,9.73
2019-05-17T19:31:33.420Z,9.88
2019-05-17T19:34:03.995Z,10.93
2019-05-17T19:36:34.384Z,9.40
2019-05-17T19:39:05.772Z,10.32
2019-05-17T19:41:36.628Z,10.63
2019-05-17T19:44:07.480Z,17.00
2019-05-17T19:46:39.233Z,8.90
2019-05-17T19:49:09.646Z,8.45
2019-05-17T19:51:40.236Z,7.80
2019-05-17T19:54:10.552Z,8.75
2019-05-17T19:56:41.214Z,9.83
2019-05-17T19:59:11.611Z,10.25
2019-05-17T20:01:42.236Z,9.65
2019-05-17T20:04:12.631Z,9.85
2019-05-17T20:06:43.116Z,10.10
2019-05-17T20:09:13.561Z,10.58
2019-05-17T20:11:43.981Z,10.18
2019-05-17T20:14:14.485Z,10.95
2019-05-17T20:16:44.860Z,10.95
2019-05-17T20:19:16.498Z,11.60
2019-05-17T20:21:46.884Z,10.78
2019-05-17T20:24:17.292Z,11.03
2019-05-17T20:26:47.730Z,12.37
2019-05-17T20:29:18.070Z,11.20
2019-05-17T20:31:49.731Z,12.82
2019-05-17T20:34:20.172Z,11.15
2019-05-17T20:36:50.789Z,12.47
2019-05-17T20:39:21.279Z,11.95
2019-05-17T20:41:52.124Z,13.05
2019-05-17T20:44:22.919Z,13.90
2019-05-17T20:46:53.334Z,13.85
2019-05-17T20:49:23.787Z,14.60
2019-05-17T20:51:54.199Z,13.62
2019-05-17T20:54:24.535Z,14.50
2019-05-17T20:56:55.783Z,15.43
2019-05-17T20:59:26.501Z,16.00
2019-05-17T21:01:56.921Z,14.93
2019-05-17T21:04:27.486Z,15.28
2019-05-17T21:06:58.011Z,14.75
2019-05-17T21:09:28.312Z,17.10
2019-05-17T21:11:58.725Z,19.27
2019-05-17T21:14:29.078Z,21.20
2019-05-17T21:16:59.502Z,23.90
2019-05-17T21:19:29.882Z,20.17
2019-05-17T21:22:00.262Z,17.77
2019-05-17T21:24:30.605Z,21.82
2019-05-17T21:27:01.186Z,19.48
2019-05-17T21:29:31.516Z,18.05
2019-05-17T21:32:01.865Z,23.42
2019-05-17T21:34:32.217Z,18.57
2019-05-17T21:37:02.620Z,18.60
2019-05-17T21:39:32.999Z,17.45
2019-05-17T21:42:03.407Z,19.95
2019-05-17T21:44:33.907Z,18.92
2019-05-17T21:47:05.160Z,20.20
2019-05-17T21:49:35.910Z,21.77
2019-05-17T21:52:06.893Z,15.43
2019-05-17T21:54:37.311Z,17.87
2019-05-17T21:57:07.991Z,17.80
2019-05-17T21:59:38.282Z,16.35
2019-05-17T22:02:08.713Z,17.02
2019-05-17T22:04:39.100Z,18.87
2019-05-17T22:07:09.683Z,17.80
2019-05-17T22:09:40.074Z,17.87
2019-05-17T22:12:12.252Z,18.20
2019-05-17T22:14:42.836Z,18.60
2019-05-17T22:17:13.214Z,18.70
2019-05-17T22:19:43.643Z,18.30
2019-05-17T22:22:14.034Z,18.70
2019-05-17T22:24:44.411Z,19.15
2019-05-17T22:27:14.772Z,19.90
2019-05-17T22:29:45.121Z,20.55
2019-05-17T22:32:15.504Z,20.30
2019-05-17T22:34:45.823Z,18.85
2019-05-17T22:37:17.629Z,20.37
2019-05-17T22:39:48.275Z,24.12
2019-05-17T22:42:19.071Z,23.50
2019-05-17T22:44:50.067Z,21.68
2019-05-17T22:47:20.745Z,21.57
2019-05-17T22:49:51.141Z,22.85
2019-05-17T22:52:21.495Z,23.00
2019-05-17T22:54:51.849Z,22.42
2019-05-17T22:57:23.829Z,22.95
2019-05-17T22:59:54.214Z,22.98
2019-05-17T23:02:24.585Z,23.73
2019-05-17T23:04:55.504Z,23.27
2019-05-17T23:07:25.926Z,25.20
2019-05-17T23:09:56.308Z,24.57
2019-05-17T23:12:26.843Z,24.63
2019-05-17T23:14:58.503Z,24.83
2019-05-17T23:17:28.818Z,25.27
2019-05-17T23:19:59.169Z,25.60
2019-05-17T23:22:29.582Z,26.50
2019-05-17T23:25:00.047Z,25.40
2019-05-17T23:27:30.386Z,23.93
2019-05-17T23:30:00.785Z,26.33
2019-05-17T23:32:31.389Z,23.83
2019-05-17T23:35:01.771Z,24.90
2019-05-17T23:37:32.213Z,24.25
2019-05-17T23:40:02.567Z,24.80
2019-05-17T23:42:34.011Z,23.83
2019-05-17T23:45:04.789Z,23.13
2019-05-17T23:47:35.195Z,24.73
2019-05-17T23:50:06.440Z,23.98
2019-05-17T23:52:36.800Z,21.93
2019-05-17T23:55:07.405Z,23.20
2019-05-17T23:57:37.727Z,23.85
